createdAt,value
2018-08-17T00:04:30.878Z,17.20
2018-08-17T00:09:34.264Z,17.10
2018-08-17T00:19:40.636Z,16.90
2018-08-17T00:24:44.001Z,16.90
2018-08-17T00:29:47.272Z,16.80
2018-08-17T00:34:50.626Z,16.80
2018-08-17T00:39:53.893Z,16.80
2018-08-17T00:44:57.163Z,16.80
2018-08-17T00:50:00.670Z,16.70
2018-08-17T00:55:04.157Z,16.60
2018-08-17T01:00:07.560Z,16.60
2018-08-17T01:05:11.100Z,16.60
2018-08-17T01:10:14.386Z,16.50
2018-08-17T01:15:17.649Z,16.40
2018-08-17T01:20:21.082Z,16.30
2018-08-17T01:25:24.353Z,16.30
2018-08-17T01:30:27.740Z,16.20
2018-08-17T01:35:31.037Z,16.10
2018-08-17T01:40:34.333Z,15.90
2018-08-17T01:45:37.674Z,15.80
2018-08-17T01:50:41.049Z,15.80
2018-08-17T02:00:47.358Z,15.70
2018-08-17T02:05:50.625Z,15.60
2018-08-17T02:10:53.978Z,15.50
2018-08-17T02:15:57.262Z,15.50
2018-08-17T02:21:00.559Z,15.40
2018-08-17T02:26:03.886Z,15.30
2018-08-17T02:31:07.197Z,15.30
2018-08-17T02:41:13.642Z,15.30
2018-08-17T02:46:17.059Z,15.30
2018-08-17T02:51:20.332Z,15.30
2018-08-17T02:56:23.633Z,15.30
2018-08-17T03:01:27.168Z,15.20
2018-08-17T03:06:30.473Z,15.20
2018-08-17T03:11:33.755Z,15.10
2018-08-17T03:16:37.043Z,15.10
2018-08-17T03:21:40.339Z,15.10
2018-08-17T03:26:43.619Z,15.10
2018-08-17T03:31:46.916Z,15.00
2018-08-17T03:36:50.420Z,14.90
2018-08-17T03:41:53.756Z,14.80
2018-08-17T03:46:57.138Z,14.80
2018-08-17T03:52:00.599Z,14.70
2018-08-17T03:57:04.204Z,14.70
2018-08-17T04:02:07.924Z,14.70
2018-08-17T04:07:11.312Z,14.70
2018-08-17T04:12:14.783Z,14.60
2018-08-17T04:17:18.075Z,14.60
2018-08-17T04:22:21.348Z,14.60
2018-08-17T04:27:24.829Z,14.50
2018-08-17T04:32:28.120Z,14.40
2018-08-17T04:37:31.425Z,14.40
2018-08-17T04:42:35.416Z,14.40
2018-08-17T04:47:38.769Z,14.50
2018-08-17T04:52:42.053Z,14.50
2018-08-17T04:57:45.570Z,14.50
2018-08-17T05:02:48.881Z,14.50
2018-08-17T05:07:52.152Z,14.60
2018-08-17T05:12:55.437Z,14.60
2018-08-17T05:17:58.732Z,14.70
2018-08-17T05:23:02.111Z,14.80
2018-08-17T05:28:05.622Z,14.80
2018-08-17T05:33:08.999Z,14.90
2018-08-17T05:38:12.426Z,15.00
2018-08-17T05:43:15.708Z,15.20
2018-08-17T05:48:19.160Z,15.40
2018-08-17T05:53:22.434Z,15.50
2018-08-17T05:58:25.853Z,15.60
2018-08-17T06:03:29.133Z,15.80
2018-08-17T06:08:32.618Z,15.90
2018-08-17T06:13:35.898Z,16.10
2018-08-17T06:18:39.466Z,16.30
2018-08-17T06:23:42.765Z,16.40
2018-08-17T06:28:46.193Z,16.60
2018-08-17T06:33:49.490Z,16.80
2018-08-17T06:38:52.964Z,17.00
2018-08-17T06:43:56.369Z,17.20
2018-08-17T06:48:59.802Z,17.40
2018-08-17T06:54:03.186Z,17.60
2018-08-17T06:59:06.577Z,17.80
2018-08-17T07:09:13.218Z,18.30
2018-08-17T07:14:16.635Z,18.80
2018-08-17T07:19:19.918Z,18.90
2018-08-17T07:24:23.208Z,19.20
2018-08-17T07:29:26.558Z,19.40
2018-08-17T07:34:30.013Z,19.60
2018-08-17T07:39:33.349Z,20.00
2018-08-17T07:44:36.634Z,20.40
2018-08-17T07:49:39.893Z,20.60
2018-08-17T07:54:43.194Z,20.80
2018-08-17T07:59:46.730Z,21.20
2018-08-17T08:04:50.036Z,21.80
2018-08-17T08:09:53.548Z,21.90
2018-08-17T08:14:57.002Z,22.10
2018-08-17T08:20:12.008Z,22.30
2018-08-17T08:25:15.293Z,22.70
2018-08-17T08:30:18.632Z,23.20
2018-08-17T08:35:22.041Z,23.50
2018-08-17T08:40:25.548Z,23.80
2018-08-17T08:45:28.949Z,24.20
2018-08-17T08:50:32.348Z,24.20
2018-08-17T08:55:35.879Z,24.50
2018-08-17T09:00:39.364Z,24.90
2018-08-17T09:05:42.665Z,25.00
2018-08-17T09:10:46.005Z,25.20
2018-08-17T09:15:49.516Z,25.30
2018-08-17T09:20:52.891Z,25.30
2018-08-17T09:25:56.322Z,25.70
2018-08-17T09:30:59.800Z,25.70
2018-08-17T09:41:06.695Z,26.10
2018-08-17T09:46:10.254Z,26.50
2018-08-17T09:51:13.737Z,26.60
2018-08-17T09:56:17.063Z,26.60
2018-08-17T10:01:25.653Z,27.00
2018-08-17T10:06:35.033Z,27.10
2018-08-17T10:11:38.316Z,27.00
2018-08-17T10:16:41.695Z,27.20
2018-08-17T10:21:51.951Z,27.20
2018-08-17T10:26:55.443Z,27.40
2018-08-17T10:31:58.879Z,27.30
2018-08-17T10:37:02.273Z,27.50
2018-08-17T10:42:05.616Z,27.40
2018-08-17T10:47:09.055Z,27.20
2018-08-17T10:52:12.385Z,27.20
2018-08-17T10:57:15.787Z,27.30
2018-08-17T11:02:19.337Z,27.10
2018-08-17T11:07:26.934Z,27.10
2018-08-17T11:12:30.236Z,27.30
2018-08-17T11:17:33.537Z,27.60
2018-08-17T11:22:37.238Z,27.70
2018-08-17T11:27:40.574Z,28.00
2018-08-17T11:37:47.060Z,28.30
2018-08-17T11:42:51.073Z,28.20
2018-08-17T11:47:55.247Z,28.50
2018-08-17T11:52:59.458Z,28.70
2018-08-17T11:58:02.906Z,29.20
2018-08-17T12:03:07.810Z,29.10
2018-08-17T12:08:11.311Z,29.20
2018-08-17T12:13:17.739Z,29.30
2018-08-17T12:18:21.142Z,29.40
2018-08-17T12:23:24.693Z,29.50
2018-08-17T12:28:29.100Z,29.60
2018-08-17T12:33:32.633Z,29.70
2018-08-17T12:38:36.089Z,29.70
2018-08-17T12:43:40.057Z,29.40
2018-08-17T12:48:43.563Z,29.30
2018-08-17T12:53:47.106Z,29.40
2018-08-17T12:58:50.527Z,29.60
2018-08-17T13:03:53.864Z,29.90
2018-08-17T13:08:57.205Z,30.50
2018-08-17T13:14:06.833Z,29.90
2018-08-17T13:19:10.425Z,30.40
2018-08-17T13:24:14.558Z,30.30
2018-08-17T13:29:17.916Z,30.50
2018-08-17T13:34:21.254Z,30.80
2018-08-17T13:39:24.781Z,31.00
2018-08-17T13:44:28.056Z,30.50
2018-08-17T13:49:31.482Z,31.00
2018-08-17T13:54:34.884Z,31.40
2018-08-17T13:59:38.164Z,31.70
2018-08-17T14:04:41.477Z,31.70
2018-08-17T14:09:44.775Z,30.90
2018-08-17T14:14:48.044Z,31.70
2018-08-17T14:19:51.425Z,31.70
2018-08-17T14:24:54.755Z,32.00
2018-08-17T14:29:58.149Z,32.10
2018-08-17T14:35:01.621Z,32.10
2018-08-17T14:40:05.108Z,31.70
2018-08-17T14:45:09.151Z,32.20
2018-08-17T14:50:13.548Z,31.50
2018-08-17T14:55:16.846Z,32.20
2018-08-17T15:00:20.318Z,31.70
2018-08-17T15:05:23.621Z,32.20
2018-08-17T15:10:26.906Z,32.60
2018-08-17T15:15:30.322Z,32.40
2018-08-17T15:20:33.726Z,32.30
2018-08-17T15:25:37.717Z,33.20
2018-08-17T15:30:41.146Z,33.30
2018-08-17T15:35:44.449Z,33.00
2018-08-17T15:40:47.802Z,33.00
2018-08-17T15:45:51.108Z,32.90
2018-08-17T15:50:54.421Z,33.40
2018-08-17T15:55:57.971Z,33.40
2018-08-17T16:01:01.482Z,33.00
2018-08-17T16:06:04.829Z,32.90
2018-08-17T16:11:08.813Z,33.10
2018-08-17T16:16:12.192Z,32.60
2018-08-17T16:26:18.585Z,32.70
2018-08-17T16:31:21.873Z,32.60
2018-08-17T16:36:25.190Z,32.50
2018-08-17T16:41:28.461Z,32.50
2018-08-17T16:46:31.877Z,32.20
2018-08-17T16:51:35.317Z,32.30
2018-08-17T16:56:38.658Z,32.00
2018-08-17T17:01:42.031Z,31.50
2018-08-17T17:06:45.655Z,31.40
2018-08-17T17:11:49.341Z,31.50
2018-08-17T17:16:52.720Z,31.10
2018-08-17T17:21:56.003Z,30.80
2018-08-17T17:26:59.410Z,30.40
2018-08-17T17:32:02.914Z,30.20
2018-08-17T17:37:06.208Z,30.10
2018-08-17T17:42:09.508Z,29.90
2018-08-17T17:47:12.835Z,29.70
2018-08-17T17:52:16.155Z,29.50
2018-08-17T17:57:19.549Z,29.20
2018-08-17T18:02:22.842Z,29.00
2018-08-17T18:07:34.074Z,28.70
2018-08-17T18:12:37.342Z,28.30
2018-08-17T18:17:41.171Z,28.00
2018-08-17T18:22:44.534Z,27.60
2018-08-17T18:27:48.913Z,27.20
2018-08-17T18:32:52.190Z,26.90
2018-08-17T18:42:58.621Z,26.60
2018-08-17T18:48:02.066Z,26.20
2018-08-17T18:53:05.366Z,25.80
2018-08-17T18:58:08.653Z,25.50
2018-08-17T19:03:12.094Z,25.30
2018-08-17T19:08:15.432Z,25.00
2018-08-17T19:13:18.912Z,24.90
2018-08-17T19:18:22.866Z,24.90
2018-08-17T19:23:26.218Z,24.60
2018-08-17T19:28:29.519Z,24.50
2018-08-17T19:33:32.828Z,24.40
2018-08-17T19:38:40.362Z,24.20
2018-08-17T19:43:43.678Z,24.10
2018-08-17T19:48:46.983Z,24.00
2018-08-17T19:53:50.318Z,23.70
2018-08-17T19:58:53.692Z,23.40
2018-08-17T20:03:57.046Z,23.40
2018-08-17T20:09:00.461Z,23.30
2018-08-17T20:14:04.125Z,23.00
2018-08-17T20:19:07.663Z,22.80
2018-08-17T20:24:11.033Z,22.60
2018-08-17T20:29:14.802Z,22.60
2018-08-17T20:34:18.077Z,22.40
2018-08-17T20:39:21.496Z,22.30
2018-08-17T20:44:24.797Z,22.30
2018-08-17T20:49:28.137Z,21.90
2018-08-17T20:54:32.044Z,21.70
2018-08-17T20:59:35.375Z,21.70
2018-08-17T21:04:38.949Z,21.60
2018-08-17T21:09:42.229Z,21.40
2018-08-17T21:14:45.513Z,21.40
2018-08-17T21:19:48.818Z,21.40
2018-08-17T21:24:52.177Z,21.30
2018-08-17T21:29:55.434Z,21.10
2018-08-17T21:34:58.849Z,21.10
2018-08-17T21:40:02.108Z,21.10
2018-08-17T21:45:05.685Z,21.00
2018-08-17T21:50:13.309Z,21.00
2018-08-17T21:55:16.640Z,21.00
2018-08-17T22:00:27.631Z,20.90
2018-08-17T22:05:33.088Z,20.70
2018-08-17T22:10:36.378Z,20.60
2018-08-17T22:15:41.211Z,20.40
2018-08-17T22:20:44.698Z,20.30
2018-08-17T22:25:48.119Z,20.20
2018-08-17T22:30:51.391Z,20.10
2018-08-17T22:35:54.990Z,20.00
2018-08-17T22:40:58.177Z,19.90
2018-08-17T22:46:01.524Z,19.80
2018-08-17T22:51:04.902Z,19.70
2018-08-17T22:56:08.273Z,19.60
2018-08-17T23:01:11.645Z,19.50
2018-08-17T23:06:14.958Z,19.40
2018-08-17T23:11:32.704Z,19.40
2018-08-17T23:16:36.126Z,19.40
2018-08-17T23:21:39.771Z,19.40
2018-08-17T23:26:43.051Z,19.30
2018-08-17T23:31:46.525Z,19.20
2018-08-17T23:36:49.847Z,19.40
2018-08-17T23:41:53.134Z,19.80
2018-08-17T23:46:56.511Z,20.20
2018-08-17T23:51:59.824Z,20.60
2018-08-17T23:57:03.232Z,20.70
